Accueil
METAR-TAF:

METAR-TAF

Aéroports :

Châlons-en-Champagne, France

Aéroport Paris Vatry

latitude: 48-46-34N, longitude: 004-11-04E, altitude: 179 m

Observation

Le bulletin a été fait il y a 28 minutes, à 17:00 UTC
Vent 10 kt de sud-ouest
Température 25°C
Humidité 50%
Pression 1015 hPa
Visibilité 10 km ou plus
Quelques nuages à une hauteur de 4800 ft
Nuages épars à une hauteur de 5600 ft

METAR: LFOK 251700Z AUTO 23010KT 9999 FEW048 SCT056 25/14 Q1015 NOSIG

Heure: 19:28 (17:28 UTC)


TAF: absent

Observations et prévisions météorologiques de plus de 4000 aéroports (messages METAR et TAF).

Les stations disponibles sont représentées par des disques jaunes et rouges sur la carte.

Passer la souris dessus pour voir le nom de la station.

Cliquer dessus pour voir les observations et prévisions météorologiques.

Pour changer de carte: cliquez sur les boutons verts avec une croix noire pour zoomer, sur le bouton vert avec un tiret pour effectuer un zoom arrière, ou sur les flèches vertes pour les cartes adjacentes.


METAR-TAF: